sensor_id;sensor_type;location;lat;lon;timestamp;temperature;humidity
41668;DHT22;27356;50.920;5.350;2023-03-18T00:00:08;13.60;99.90
41668;DHT22;27356;50.920;5.350;2023-03-18T00:02:36;13.70;99.90
41668;DHT22;27356;50.920;5.350;2023-03-18T00:05:04;13.70;99.90
41668;DHT22;27356;50.920;5.350;2023-03-18T00:07:30;13.70;99.90
41668;DHT22;27356;50.920;5.350;2023-03-18T00:09:56;13.60;99.90
41668;DHT22;27356;50.920;5.350;2023-03-18T00:12:22;13.50;99.90
41668;DHT22;27356;50.920;5.350;2023-03-18T00:14:49;13.50;99.90
41668;DHT22;27356;50.920;5.350;2023-03-18T00:17:16;13.50;99.90
41668;DHT22;27356;50.920;5.350;2023-03-18T00:19:41;13.50;99.90
41668;DHT22;27356;50.920;5.350;2023-03-18T00:22:08;13.30;99.90
41668;DHT22;27356;50.920;5.350;2023-03-18T00:24:37;13.10;99.90
41668;DHT22;27356;50.920;5.350;2023-03-18T00:27:03;13.00;99.90
41668;DHT22;27356;50.920;5.350;2023-03-18T00:29:29;12.90;99.90
41668;DHT22;27356;50.920;5.350;2023-03-18T00:31:57;12.80;99.90
41668;DHT22;27356;50.920;5.350;2023-03-18T00:34:23;12.70;99.90
41668;DHT22;27356;50.920;5.350;2023-03-18T00:36:48;12.60;99.90
41668;DHT22;27356;50.920;5.350;2023-03-18T00:39:23;12.60;99.90
41668;DHT22;27356;50.920;5.350;2023-03-18T00:41:54;12.50;99.90
41668;DHT22;27356;50.920;5.350;2023-03-18T00:44:20;12.60;99.90
41668;DHT22;27356;50.920;5.350;2023-03-18T00:46:46;12.60;99.90
41668;DHT22;27356;50.920;5.350;2023-03-18T00:49:12;12.60;99.90
41668;DHT22;27356;50.920;5.350;2023-03-18T00:51:38;12.60;99.90
41668;DHT22;27356;50.920;5.350;2023-03-18T00:54:08;12.50;99.90
41668;DHT22;27356;50.920;5.350;2023-03-18T00:56:36;12.40;99.90
41668;DHT22;27356;50.920;5.350;2023-03-18T00:59:02;12.30;99.90
41668;DHT22;27356;50.920;5.350;2023-03-18T01:01:29;12.20;99.90
41668;DHT22;27356;50.920;5.350;2023-03-18T01:03:55;12.20;99.90
41668;DHT22;27356;50.920;5.350;2023-03-18T01:06:24;12.10;99.90
41668;DHT22;27356;50.920;5.350;2023-03-18T01:08:50;12.10;99.90
41668;DHT22;27356;50.920;5.350;2023-03-18T01:11:16;12.10;99.90
41668;DHT22;27356;50.920;5.350;2023-03-18T01:13:42;12.10;99.90
41668;DHT22;27356;50.920;5.350;2023-03-18T01:16:08;12.10;99.90
41668;DHT22;27356;50.920;5.350;2023-03-18T01:18:35;12.20;99.90
41668;DHT22;27356;50.920;5.350;2023-03-18T01:21:01;12.20;99.90
41668;DHT22;27356;50.920;5.350;2023-03-18T01:23:27;12.20;99.90
41668;DHT22;27356;50.920;5.350;2023-03-18T01:25:55;12.10;99.90
41668;DHT22;27356;50.920;5.350;2023-03-18T01:28:21;12.10;99.90
41668;DHT22;27356;50.920;5.350;2023-03-18T01:30:47;12.20;99.90
41668;DHT22;27356;50.920;5.350;2023-03-18T01:33:13;12.20;99.90
41668;DHT22;27356;50.920;5.350;2023-03-18T01:35:40;12.20;99.90
41668;DHT22;27356;50.920;5.350;2023-03-18T01:38:06;12.20;99.90
41668;DHT22;27356;50.920;5.350;2023-03-18T01:40:34;12.20;99.90
41668;DHT22;27356;50.920;5.350;2023-03-18T01:45:34;12.30;99.90
41668;DHT22;27356;50.920;5.350;2023-03-18T01:48:01;12.20;99.90
41668;DHT22;27356;50.920;5.350;2023-03-18T01:50:30;12.20;99.90
41668;DHT22;27356;50.920;5.350;2023-03-18T01:53:00;12.10;99.90
41668;DHT22;27356;50.920;5.350;2023-03-18T01:55:29;12.10;99.90
41668;DHT22;27356;50.920;5.350;2023-03-18T01:57:56;12.10;99.90
41668;DHT22;27356;50.920;5.350;2023-03-18T02:00:23;12.20;99.90
41668;DHT22;27356;50.920;5.350;2023-03-18T02:02:52;12.20;99.90
41668;DHT22;27356;50.920;5.350;2023-03-18T02:05:21;12.30;99.90
41668;DHT22;27356;50.920;5.350;2023-03-18T02:07:48;12.30;99.90
41668;DHT22;27356;50.920;5.350;2023-03-18T02:10:27;12.30;99.90
41668;DHT22;27356;50.920;5.350;2023-03-18T02:12:59;12.30;99.90
41668;DHT22;27356;50.920;5.350;2023-03-18T02:15:29;12.40;99.90
41668;DHT22;27356;50.920;5.350;2023-03-18T02:18:04;12.40;99.90
41668;DHT22;27356;50.920;5.350;2023-03-18T02:20:49;12.40;99.90
41668;DHT22;27356;50.920;5.350;2023-03-18T02:23:51;12.50;99.90
41668;DHT22;27356;50.920;5.350;2023-03-18T02:26:40;12.40;99.90
41668;DHT22;27356;50.920;5.350;2023-03-18T02:29:10;12.40;99.90
41668;DHT22;27356;50.920;5.350;2023-03-18T02:31:38;12.30;99.90
41668;DHT22;27356;50.920;5.350;2023-03-18T02:34:06;12.40;99.90
41668;DHT22;27356;50.920;5.350;2023-03-18T02:36:34;12.30;99.90
41668;DHT22;27356;50.920;5.350;2023-03-18T02:39:01;12.30;99.90
41668;DHT22;27356;50.920;5.350;2023-03-18T02:41:30;12.30;99.90
41668;DHT22;27356;50.920;5.350;2023-03-18T02:43:57;12.30;99.90
41668;DHT22;27356;50.920;5.350;2023-03-18T02:49:16;12.30;99.90
41668;DHT22;27356;50.920;5.350;2023-03-18T02:51:42;12.40;99.90
41668;DHT22;27356;50.920;5.350;2023-03-18T02:54:15;12.30;99.90
41668;DHT22;27356;50.920;5.350;2023-03-18T02:56:42;12.40;99.90
41668;DHT22;27356;50.920;5.350;2023-03-18T02:59:09;12.40;99.90
41668;DHT22;27356;50.920;5.350;2023-03-18T03:01:36;12.50;99.90
41668;DHT22;27356;50.920;5.350;2023-03-18T03:04:03;12.50;99.90
41668;DHT22;27356;50.920;5.350;2023-03-18T03:06:29;12.40;99.90
41668;DHT22;27356;50.920;5.350;2023-03-18T03:08:55;12.50;99.90
41668;DHT22;27356;50.920;5.350;2023-03-18T03:11:22;12.40;99.90
41668;DHT22;27356;50.920;5.350;2023-03-18T03:13:48;12.40;99.90
41668;DHT22;27356;50.920;5.350;2023-03-18T03:16:14;12.40;99.90
41668;DHT22;27356;50.920;5.350;2023-03-18T03:18:41;12.30;99.90
41668;DHT22;27356;50.920;5.350;2023-03-18T03:21:08;12.30;99.90
41668;DHT22;27356;50.920;5.350;2023-03-18T03:23:34;12.50;99.90
41668;DHT22;27356;50.920;5.350;2023-03-18T03:26:00;12.40;99.90
41668;DHT22;27356;50.920;5.350;2023-03-18T03:28:26;12.40;99.90
41668;DHT22;27356;50.920;5.350;2023-03-18T03:30:53;12.40;99.90
41668;DHT22;27356;50.920;5.350;2023-03-18T03:33:20;12.50;99.90
41668;DHT22;27356;50.920;5.350;2023-03-18T03:35:46;12.40;99.90
41668;DHT22;27356;50.920;5.350;2023-03-18T03:38:12;12.40;99.90
41668;DHT22;27356;50.920;5.350;2023-03-18T03:40:37;12.50;99.90
41668;DHT22;27356;50.920;5.350;2023-03-18T03:43:04;12.40;99.90
41668;DHT22;27356;50.920;5.350;2023-03-18T03:45:30;12.30;99.90
41668;DHT22;27356;50.920;5.350;2023-03-18T03:47:56;12.30;99.90
41668;DHT22;27356;50.920;5.350;2023-03-18T03:50:22;12.30;99.90
41668;DHT22;27356;50.920;5.350;2023-03-18T03:52:48;12.20;99.90
41668;DHT22;27356;50.920;5.350;2023-03-18T03:55:16;12.30;99.90
41668;DHT22;27356;50.920;5.350;2023-03-18T03:57:43;12.40;99.90
41668;DHT22;27356;50.920;5.350;2023-03-18T04:00:15;12.40;99.90
41668;DHT22;27356;50.920;5.350;2023-03-18T04:02:43;12.50;99.90
41668;DHT22;27356;50.920;5.350;2023-03-18T04:05:11;12.50;99.90
41668;DHT22;27356;50.920;5.350;2023-03-18T04:07:38;12.50;99.90
41668;DHT22;27356;50.920;5.350;2023-03-18T04:10:08;12.40;99.90
41668;DHT22;27356;50.920;5.350;2023-03-18T04:12:35;12.30;99.90
41668;DHT22;27356;50.920;5.350;2023-03-18T04:15:01;12.30;99.90
41668;DHT22;27356;50.920;5.350;2023-03-18T04:17:27;12.30;99.90
41668;DHT22;27356;50.920;5.350;2023-03-18T04:19:53;12.20;99.90
41668;DHT22;27356;50.920;5.350;2023-03-18T04:22:20;12.20;99.90
41668;DHT22;27356;50.920;5.350;2023-03-18T04:24:45;12.30;99.90
41668;DHT22;27356;50.920;5.350;2023-03-18T04:27:14;12.30;99.90
41668;DHT22;27356;50.920;5.350;2023-03-18T04:29:40;12.30;99.90
41668;DHT22;27356;50.920;5.350;2023-03-18T04:32:06;12.30;99.90
41668;DHT22;27356;50.920;5.350;2023-03-18T04:34:32;12.20;99.90
41668;DHT22;27356;50.920;5.350;2023-03-18T04:36:58;12.20;99.90
41668;DHT22;27356;50.920;5.350;2023-03-18T04:39:23;12.20;99.90
41668;DHT22;27356;50.920;5.350;2023-03-18T04:41:49;12.20;99.90
41668;DHT22;27356;50.920;5.350;2023-03-18T04:44:15;12.10;99.90
41668;DHT22;27356;50.920;5.350;2023-03-18T04:46:41;12.10;99.90
41668;DHT22;27356;50.920;5.350;2023-03-18T04:49:08;12.10;99.90
41668;DHT22;27356;50.920;5.350;2023-03-18T04:51:34;12.10;99.90
41668;DHT22;27356;50.920;5.350;2023-03-18T04:54:02;12.10;99.90
41668;DHT22;27356;50.920;5.350;2023-03-18T04:56:28;12.20;99.90
41668;DHT22;27356;50.920;5.350;2023-03-18T04:58:53;12.20;99.90
41668;DHT22;27356;50.920;5.350;2023-03-18T05:01:19;12.10;99.90
41668;DHT22;27356;50.920;5.350;2023-03-18T05:03:45;12.10;99.90
41668;DHT22;27356;50.920;5.350;2023-03-18T05:06:20;12.20;99.90
41668;DHT22;27356;50.920;5.350;2023-03-18T05:08:47;12.10;99.90
41668;DHT22;27356;50.920;5.350;2023-03-18T05:11:13;12.00;99.90
41668;DHT22;27356;50.920;5.350;2023-03-18T05:13:39;11.90;99.90
41668;DHT22;27356;50.920;5.350;2023-03-18T05:16:05;11.70;99.90
41668;DHT22;27356;50.920;5.350;2023-03-18T05:18:33;11.50;99.90
41668;DHT22;27356;50.920;5.350;2023-03-18T05:20:59;11.40;99.90
41668;DHT22;27356;50.920;5.350;2023-03-18T05:23:25;11.30;99.90
41668;DHT22;27356;50.920;5.350;2023-03-18T05:25:50;11.20;99.90
41668;DHT22;27356;50.920;5.350;2023-03-18T05:28:16;11.10;99.90
41668;DHT22;27356;50.920;5.350;2023-03-18T05:30:42;11.00;99.90
41668;DHT22;27356;50.920;5.350;2023-03-18T05:33:08;11.00;99.90
41668;DHT22;27356;50.920;5.350;2023-03-18T05:35:34;10.90;99.90
41668;DHT22;27356;50.920;5.350;2023-03-18T05:38:00;10.80;99.90
41668;DHT22;27356;50.920;5.350;2023-03-18T05:40:26;10.70;99.90
41668;DHT22;27356;50.920;5.350;2023-03-18T05:42:52;10.60;99.90
41668;DHT22;27356;50.920;5.350;2023-03-18T05:45:18;10.60;99.90
41668;DHT22;27356;50.920;5.350;2023-03-18T05:47:44;10.50;99.90
41668;DHT22;27356;50.920;5.350;2023-03-18T05:50:10;10.50;99.90
41668;DHT22;27356;50.920;5.350;2023-03-18T05:52:36;10.50;99.90
41668;DHT22;27356;50.920;5.350;2023-03-18T05:55:03;10.40;99.90
41668;DHT22;27356;50.920;5.350;2023-03-18T05:57:29;10.30;99.90
41668;DHT22;27356;50.920;5.350;2023-03-18T05:59:55;10.40;99.90
41668;DHT22;27356;50.920;5.350;2023-03-18T06:02:20;10.40;99.90
41668;DHT22;27356;50.920;5.350;2023-03-18T06:04:46;10.40;99.90
41668;DHT22;27356;50.920;5.350;2023-03-18T06:07:12;10.40;99.90
41668;DHT22;27356;50.920;5.350;2023-03-18T06:09:38;10.40;99.90
41668;DHT22;27356;50.920;5.350;2023-03-18T06:12:04;10.40;99.90
41668;DHT22;27356;50.920;5.350;2023-03-18T06:14:29;10.40;99.90
41668;DHT22;27356;50.920;5.350;2023-03-18T06:16:56;10.40;99.90
41668;DHT22;27356;50.920;5.350;2023-03-18T06:19:22;10.40;99.90
41668;DHT22;27356;50.920;5.350;2023-03-18T06:21:48;10.60;99.90
41668;DHT22;27356;50.920;5.350;2023-03-18T06:24:13;11.00;99.90
41668;DHT22;27356;50.920;5.350;2023-03-18T06:26:40;11.30;99.90
41668;DHT22;27356;50.920;5.350;2023-03-18T06:29:07;11.50;99.90
41668;DHT22;27356;50.920;5.350;2023-03-18T06:31:33;11.60;99.90
41668;DHT22;27356;50.920;5.350;2023-03-18T06:33:59;11.60;99.90
41668;DHT22;27356;50.920;5.350;2023-03-18T06:36:25;11.60;99.90
41668;DHT22;27356;50.920;5.350;2023-03-18T06:38:51;11.50;99.90
41668;DHT22;27356;50.920;5.350;2023-03-18T06:41:18;11.40;99.90
41668;DHT22;27356;50.920;5.350;2023-03-18T06:43:44;11.30;99.90
41668;DHT22;27356;50.920;5.350;2023-03-18T06:46:12;11.30;99.90
41668;DHT22;27356;50.920;5.350;2023-03-18T06:48:39;11.20;99.90
41668;DHT22;27356;50.920;5.350;2023-03-18T06:51:06;11.40;99.90
41668;DHT22;27356;50.920;5.350;2023-03-18T06:53:32;11.80;99.90
41668;DHT22;27356;50.920;5.350;2023-03-18T06:55:58;12.10;99.90
41668;DHT22;27356;50.920;5.350;2023-03-18T06:58:23;12.40;99.90
41668;DHT22;27356;50.920;5.350;2023-03-18T07:00:50;12.40;99.90
41668;DHT22;27356;50.920;5.350;2023-03-18T07:03:16;12.50;99.90
41668;DHT22;27356;50.920;5.350;2023-03-18T07:05:42;12.40;99.90
41668;DHT22;27356;50.920;5.350;2023-03-18T07:08:08;12.40;99.90
41668;DHT22;27356;50.920;5.350;2023-03-18T07:10:34;12.30;99.90
41668;DHT22;27356;50.920;5.350;2023-03-18T07:13:00;12.30;99.90
41668;DHT22;27356;50.920;5.350;2023-03-18T07:15:26;12.40;99.90
41668;DHT22;27356;50.920;5.350;2023-03-18T07:17:52;12.80;99.90
41668;DHT22;27356;50.920;5.350;2023-03-18T07:20:18;13.10;99.90
41668;DHT22;27356;50.920;5.350;2023-03-18T07:22:45;13.40;99.90
41668;DHT22;27356;50.920;5.350;2023-03-18T07:25:14;13.60;99.90
41668;DHT22;27356;50.920;5.350;2023-03-18T07:27:40;14.00;99.90
41668;DHT22;27356;50.920;5.350;2023-03-18T07:30:07;14.70;99.90
41668;DHT22;27356;50.920;5.350;2023-03-18T07:32:36;15.10;99.90
41668;DHT22;27356;50.920;5.350;2023-03-18T07:35:03;16.00;99.90
41668;DHT22;27356;50.920;5.350;2023-03-18T07:37:30;16.40;99.90
41668;DHT22;27356;50.920;5.350;2023-03-18T07:39:56;16.10;99.90
41668;DHT22;27356;50.920;5.350;2023-03-18T07:42:22;16.00;99.90
41668;DHT22;27356;50.920;5.350;2023-03-18T07:44:48;15.40;99.90
41668;DHT22;27356;50.920;5.350;2023-03-18T07:47:14;15.20;99.90
41668;DHT22;27356;50.920;5.350;2023-03-18T07:49:40;15.10;99.90
41668;DHT22;27356;50.920;5.350;2023-03-18T07:52:06;14.90;99.90
41668;DHT22;27356;50.920;5.350;2023-03-18T07:54:33;14.90;99.90
41668;DHT22;27356;50.920;5.350;2023-03-18T07:56:59;14.90;99.90
41668;DHT22;27356;50.920;5.350;2023-03-18T07:59:25;14.80;99.90
41668;DHT22;27356;50.920;5.350;2023-03-18T08:01:51;14.70;99.90
41668;DHT22;27356;50.920;5.350;2023-03-18T08:04:16;14.60;99.90
41668;DHT22;27356;50.920;5.350;2023-03-18T08:06:43;14.60;99.90
41668;DHT22;27356;50.920;5.350;2023-03-18T08:09:10;14.60;99.90
41668;DHT22;27356;50.920;5.350;2023-03-18T08:11:35;14.10;99.90
41668;DHT22;27356;50.920;5.350;2023-03-18T08:14:02;14.30;99.90
41668;DHT22;27356;50.920;5.350;2023-03-18T08:16:28;14.40;99.90
41668;DHT22;27356;50.920;5.350;2023-03-18T08:18:53;14.80;99.90
41668;DHT22;27356;50.920;5.350;2023-03-18T08:21:19;15.10;99.90
41668;DHT22;27356;50.920;5.350;2023-03-18T08:23:45;15.10;99.90
41668;DHT22;27356;50.920;5.350;2023-03-18T08:26:12;14.90;99.90
41668;DHT22;27356;50.920;5.350;2023-03-18T08:28:38;14.80;99.90
41668;DHT22;27356;50.920;5.350;2023-03-18T08:31:04;14.90;99.90
41668;DHT22;27356;50.920;5.350;2023-03-18T08:33:30;15.20;99.90
41668;DHT22;27356;50.920;5.350;2023-03-18T08:35:56;15.40;99.90
41668;DHT22;27356;50.920;5.350;2023-03-18T08:38:23;15.50;99.90
41668;DHT22;27356;50.920;5.350;2023-03-18T08:40:50;15.60;99.90
41668;DHT22;27356;50.920;5.350;2023-03-18T08:43:16;16.30;99.90
41668;DHT22;27356;50.920;5.350;2023-03-18T08:45:42;17.20;99.90
41668;DHT22;27356;50.920;5.350;2023-03-18T08:48:08;17.60;99.90
41668;DHT22;27356;50.920;5.350;2023-03-18T08:50:35;18.50;99.90
41668;DHT22;27356;50.920;5.350;2023-03-18T08:53:02;19.10;99.90
41668;DHT22;27356;50.920;5.350;2023-03-18T08:55:33;19.80;99.90
41668;DHT22;27356;50.920;5.350;2023-03-18T08:58:00;19.50;99.90
41668;DHT22;27356;50.920;5.350;2023-03-18T09:00:26;19.50;99.90
41668;DHT22;27356;50.920;5.350;2023-03-18T09:02:52;20.00;99.90
41668;DHT22;27356;50.920;5.350;2023-03-18T09:05:19;20.30;99.90
41668;DHT22;27356;50.920;5.350;2023-03-18T09:07:44;21.20;99.60
41668;DHT22;27356;50.920;5.350;2023-03-18T09:10:12;21.90;98.10
41668;DHT22;27356;50.920;5.350;2023-03-18T09:12:40;21.60;97.10
41668;DHT22;27356;50.920;5.350;2023-03-18T09:15:07;20.90;97.80
41668;DHT22;27356;50.920;5.350;2023-03-18T09:17:35;21.30;98.00
41668;DHT22;27356;50.920;5.350;2023-03-18T09:20:03;22.20;96.40
41668;DHT22;27356;50.920;5.350;2023-03-18T09:22:29;22.40;95.30
41668;DHT22;27356;50.920;5.350;2023-03-18T09:24:55;23.00;94.10
41668;DHT22;27356;50.920;5.350;2023-03-18T09:27:20;22.40;94.80
41668;DHT22;27356;50.920;5.350;2023-03-18T09:29:46;22.60;94.70
41668;DHT22;27356;50.920;5.350;2023-03-18T09:32:12;23.00;95.10
41668;DHT22;27356;50.920;5.350;2023-03-18T09:34:38;22.40;94.70
41668;DHT22;27356;50.920;5.350;2023-03-18T09:37:04;22.20;95.20
41668;DHT22;27356;50.920;5.350;2023-03-18T09:39:30;22.30;95.40
41668;DHT22;27356;50.920;5.350;2023-03-18T09:42:20;22.50;94.50
41668;DHT22;27356;50.920;5.350;2023-03-18T09:44:55;22.30;93.60
41668;DHT22;27356;50.920;5.350;2023-03-18T09:47:44;21.30;94.90
41668;DHT22;27356;50.920;5.350;2023-03-18T09:55:42;19.40;97.20
41668;DHT22;27356;50.920;5.350;2023-03-18T09:58:24;18.70;98.20
41668;DHT22;27356;50.920;5.350;2023-03-18T10:00:58;18.40;99.30
41668;DHT22;27356;50.920;5.350;2023-03-18T10:03:42;18.30;99.90
41668;DHT22;27356;50.920;5.350;2023-03-18T10:06:15;18.50;99.40
41668;DHT22;27356;50.920;5.350;2023-03-18T10:08:48;18.90;99.20
41668;DHT22;27356;50.920;5.350;2023-03-18T10:19:35;19.30;97.80
41668;DHT22;27356;50.920;5.350;2023-03-18T10:22:41;19.20;97.80
41668;DHT22;27356;50.920;5.350;2023-03-18T10:27:55;18.70;98.40
41668;DHT22;27356;50.920;5.350;2023-03-18T10:30:50;18.70;98.20
41668;DHT22;27356;50.920;5.350;2023-03-18T10:38:23;17.90;98.90
41668;DHT22;27356;50.920;5.350;2023-03-18T10:40:51;17.80;99.30
41668;DHT22;27356;50.920;5.350;2023-03-18T10:43:21;17.60;99.80
41668;DHT22;27356;50.920;5.350;2023-03-18T10:46:04;17.70;98.80
41668;DHT22;27356;50.920;5.350;2023-03-18T10:48:39;17.50;99.30
41668;DHT22;27356;50.920;5.350;2023-03-18T10:51:11;17.60;99.60
41668;DHT22;27356;50.920;5.350;2023-03-18T10:53:56;17.80;99.00
41668;DHT22;27356;50.920;5.350;2023-03-18T10:56:23;18.00;98.70
41668;DHT22;27356;50.920;5.350;2023-03-18T10:58:49;18.00;98.90
41668;DHT22;27356;50.920;5.350;2023-03-18T11:01:19;18.20;99.00
41668;DHT22;27356;50.920;5.350;2023-03-18T11:03:53;18.20;98.10
41668;DHT22;27356;50.920;5.350;2023-03-18T11:06:44;18.30;97.70
41668;DHT22;27356;50.920;5.350;2023-03-18T11:09:16;18.10;98.10
41668;DHT22;27356;50.920;5.350;2023-03-18T11:11:43;17.80;98.30
41668;DHT22;27356;50.920;5.350;2023-03-18T11:14:14;17.40;98.70
41668;DHT22;27356;50.920;5.350;2023-03-18T11:16:56;17.20;99.70
41668;DHT22;27356;50.920;5.350;2023-03-18T11:22:02;17.10;99.50
41668;DHT22;27356;50.920;5.350;2023-03-18T11:24:35;17.10;99.50
41668;DHT22;27356;50.920;5.350;2023-03-18T11:27:38;17.00;99.30
41668;DHT22;27356;50.920;5.350;2023-03-18T11:30:02;16.80;99.70
41668;DHT22;27356;50.920;5.350;2023-03-18T11:32:34;16.60;99.90
41668;DHT22;27356;50.920;5.350;2023-03-18T11:35:05;16.70;99.90
41668;DHT22;27356;50.920;5.350;2023-03-18T11:37:37;16.70;99.90
41668;DHT22;27356;50.920;5.350;2023-03-18T11:42:44;16.60;99.90
41668;DHT22;27356;50.920;5.350;2023-03-18T11:47:48;16.50;99.90
41668;DHT22;27356;50.920;5.350;2023-03-18T11:50:21;16.40;99.90
41668;DHT22;27356;50.920;5.350;2023-03-18T11:52:56;16.40;99.90
41668;DHT22;27356;50.920;5.350;2023-03-18T11:58:51;16.20;99.90
41668;DHT22;27356;50.920;5.350;2023-03-18T12:07:27;16.30;99.90
41668;DHT22;27356;50.920;5.350;2023-03-18T12:13:11;16.50;99.90
41668;DHT22;27356;50.920;5.350;2023-03-18T12:21:28;16.60;99.90
41668;DHT22;27356;50.920;5.350;2023-03-18T12:35:27;18.80;99.30
41668;DHT22;27356;50.920;5.350;2023-03-18T12:40:48;19.10;98.00
41668;DHT22;27356;50.920;5.350;2023-03-18T12:48:58;18.70;98.40
41668;DHT22;27356;50.920;5.350;2023-03-18T12:51:29;19.20;97.80
41668;DHT22;27356;50.920;5.350;2023-03-18T12:54:06;19.40;97.20
41668;DHT22;27356;50.920;5.350;2023-03-18T12:56:40;19.60;97.10
41668;DHT22;27356;50.920;5.350;2023-03-18T12:59:23;19.50;96.50
41668;DHT22;27356;50.920;5.350;2023-03-18T13:04:32;19.50;96.50
41668;DHT22;27356;50.920;5.350;2023-03-18T13:07:13;19.30;96.30
41668;DHT22;27356;50.920;5.350;2023-03-18T13:09:53;19.10;97.00
41668;DHT22;27356;50.920;5.350;2023-03-18T13:12:39;19.30;96.60
41668;DHT22;27356;50.920;5.350;2023-03-18T13:17:42;19.30;97.50
41668;DHT22;27356;50.920;5.350;2023-03-18T13:20:16;19.30;96.70
41668;DHT22;27356;50.920;5.350;2023-03-18T13:33:56;18.90;96.20
41668;DHT22;27356;50.920;5.350;2023-03-18T13:36:46;18.90;96.50
41668;DHT22;27356;50.920;5.350;2023-03-18T13:39:24;18.80;96.70
41668;DHT22;27356;50.920;5.350;2023-03-18T13:50:52;19.10;95.70
41668;DHT22;27356;50.920;5.350;2023-03-18T13:53:30;19.10;95.00
41668;DHT22;27356;50.920;5.350;2023-03-18T13:58:28;18.70;95.50
41668;DHT22;27356;50.920;5.350;2023-03-18T14:04:00;18.80;95.10
41668;DHT22;27356;50.920;5.350;2023-03-18T14:12:36;18.70;95.00
41668;DHT22;27356;50.920;5.350;2023-03-18T14:17:25;18.50;95.50
41668;DHT22;27356;50.920;5.350;2023-03-18T14:19:53;18.40;95.40
41668;DHT22;27356;50.920;5.350;2023-03-18T14:22:30;18.40;94.90
41668;DHT22;27356;50.920;5.350;2023-03-18T14:25:21;18.40;95.00
41668;DHT22;27356;50.920;5.350;2023-03-18T14:27:51;18.30;95.10
41668;DHT22;27356;50.920;5.350;2023-03-18T14:32:59;18.20;94.00
41668;DHT22;27356;50.920;5.350;2023-03-18T14:35:31;18.20;94.50
41668;DHT22;27356;50.920;5.350;2023-03-18T14:40:48;18.00;95.10
41668;DHT22;27356;50.920;5.350;2023-03-18T14:43:25;17.80;94.80
41668;DHT22;27356;50.920;5.350;2023-03-18T14:45:56;17.90;94.70
41668;DHT22;27356;50.920;5.350;2023-03-18T14:48:26;18.00;94.80
41668;DHT22;27356;50.920;5.350;2023-03-18T14:50:56;18.10;95.00
41668;DHT22;27356;50.920;5.350;2023-03-18T14:53:47;18.00;94.40
41668;DHT22;27356;50.920;5.350;2023-03-18T14:56:28;18.20;94.00
41668;DHT22;27356;50.920;5.350;2023-03-18T14:58:55;18.20;93.80
41668;DHT22;27356;50.920;5.350;2023-03-18T15:01:27;18.20;94.00
41668;DHT22;27356;50.920;5.350;2023-03-18T15:03:57;18.30;93.50
41668;DHT22;27356;50.920;5.350;2023-03-18T15:06:27;18.40;93.40
41668;DHT22;27356;50.920;5.350;2023-03-18T15:09:07;18.50;93.60
41668;DHT22;27356;50.920;5.350;2023-03-18T15:11:40;18.50;93.80
41668;DHT22;27356;50.920;5.350;2023-03-18T15:14:14;18.40;93.20
41668;DHT22;27356;50.920;5.350;2023-03-18T15:16:48;18.50;93.30
41668;DHT22;27356;50.920;5.350;2023-03-18T15:19:17;18.60;93.40
41668;DHT22;27356;50.920;5.350;2023-03-18T15:21:43;18.70;93.00
41668;DHT22;27356;50.920;5.350;2023-03-18T15:24:11;18.80;93.00
41668;DHT22;27356;50.920;5.350;2023-03-18T15:26:44;18.80;92.60
41668;DHT22;27356;50.920;5.350;2023-03-18T15:29:29;18.60;92.80
41668;DHT22;27356;50.920;5.350;2023-03-18T15:32:18;18.50;92.60
41668;DHT22;27356;50.920;5.350;2023-03-18T15:34:49;18.50;92.50
41668;DHT22;27356;50.920;5.350;2023-03-18T15:37:34;18.40;92.50
41668;DHT22;27356;50.920;5.350;2023-03-18T15:42:57;18.20;92.90
41668;DHT22;27356;50.920;5.350;2023-03-18T15:45:27;18.10;92.30
41668;DHT22;27356;50.920;5.350;2023-03-18T15:47:54;17.90;92.50
41668;DHT22;27356;50.920;5.350;2023-03-18T15:50:27;17.70;93.10
41668;DHT22;27356;50.920;5.350;2023-03-18T15:53:24;17.70;93.10
41668;DHT22;27356;50.920;5.350;2023-03-18T15:56:06;17.60;92.90
41668;DHT22;27356;50.920;5.350;2023-03-18T15:58:38;17.40;93.50
41668;DHT22;27356;50.920;5.350;2023-03-18T16:01:05;17.40;93.30
41668;DHT22;27356;50.920;5.350;2023-03-18T16:03:33;17.40;93.10
41668;DHT22;27356;50.920;5.350;2023-03-18T16:06:00;17.30;93.50
41668;DHT22;27356;50.920;5.350;2023-03-18T16:08:26;17.20;93.50
41668;DHT22;27356;50.920;5.350;2023-03-18T16:10:54;17.00;94.10
41668;DHT22;27356;50.920;5.350;2023-03-18T16:13:26;17.10;93.60
41668;DHT22;27356;50.920;5.350;2023-03-18T16:15:54;17.10;93.50
41668;DHT22;27356;50.920;5.350;2023-03-18T16:18:20;16.90;94.00
41668;DHT22;27356;50.920;5.350;2023-03-18T16:20:47;17.00;94.10
41668;DHT22;27356;50.920;5.350;2023-03-18T16:23:14;17.00;94.30
41668;DHT22;27356;50.920;5.350;2023-03-18T16:25:45;17.00;94.50
41668;DHT22;27356;50.920;5.350;2023-03-18T16:28:18;16.90;94.80
41668;DHT22;27356;50.920;5.350;2023-03-18T16:30:45;16.90;95.00
41668;DHT22;27356;50.920;5.350;2023-03-18T16:33:13;16.80;94.90
41668;DHT22;27356;50.920;5.350;2023-03-18T16:35:41;16.80;95.20
41668;DHT22;27356;50.920;5.350;2023-03-18T16:38:15;16.70;95.00
41668;DHT22;27356;50.920;5.350;2023-03-18T16:40:42;16.60;95.50
41668;DHT22;27356;50.920;5.350;2023-03-18T16:43:16;16.60;95.40
41668;DHT22;27356;50.920;5.350;2023-03-18T16:45:42;16.60;95.30
41668;DHT22;27356;50.920;5.350;2023-03-18T16:48:14;16.60;95.50
41668;DHT22;27356;50.920;5.350;2023-03-18T16:50:41;16.60;95.40
41668;DHT22;27356;50.920;5.350;2023-03-18T16:55:51;16.60;95.90
41668;DHT22;27356;50.920;5.350;2023-03-18T16:58:25;16.60;95.80
41668;DHT22;27356;50.920;5.350;2023-03-18T17:00:52;16.50;95.90
41668;DHT22;27356;50.920;5.350;2023-03-18T17:03:18;16.50;96.10
41668;DHT22;27356;50.920;5.350;2023-03-18T17:05:46;16.40;96.20
41668;DHT22;27356;50.920;5.350;2023-03-18T17:08:15;16.30;96.20
41668;DHT22;27356;50.920;5.350;2023-03-18T17:10:41;16.30;96.30
41668;DHT22;27356;50.920;5.350;2023-03-18T17:13:14;16.30;96.40
41668;DHT22;27356;50.920;5.350;2023-03-18T17:15:40;16.30;96.10
41668;DHT22;27356;50.920;5.350;2023-03-18T17:18:12;16.20;96.40
41668;DHT22;27356;50.920;5.350;2023-03-18T17:20:39;16.10;96.50
41668;DHT22;27356;50.920;5.350;2023-03-18T17:23:05;15.90;97.10
41668;DHT22;27356;50.920;5.350;2023-03-18T17:25:32;15.80;97.20
41668;DHT22;27356;50.920;5.350;2023-03-18T17:28:12;15.70;97.40
41668;DHT22;27356;50.920;5.350;2023-03-18T17:30:41;15.70;97.70
41668;DHT22;27356;50.920;5.350;2023-03-18T17:33:21;15.60;97.70
41668;DHT22;27356;50.920;5.350;2023-03-18T17:35:48;15.50;97.70
41668;DHT22;27356;50.920;5.350;2023-03-18T17:38:14;15.50;98.00
41668;DHT22;27356;50.920;5.350;2023-03-18T17:40:39;15.40;98.20
41668;DHT22;27356;50.920;5.350;2023-03-18T17:43:10;15.40;98.20
41668;DHT22;27356;50.920;5.350;2023-03-18T17:45:40;15.30;98.30